Latest Weather Observations for McArthur River Mine

IDD60801

Issued at 1:01 pm CST Monday 2 March 2015 (issued every 30 minutes, with the page automatically refreshed every 10 minutes)

About weather observations | Map of weather stations | Latest weather observations for NT | Other Formats
Station Details ID: 014704 Name: MCARTHUR RIVER MINE AIRPORT Lat: -16.44 Lon: 136.08 Height: 40.0 m
Data from the previous 72 hours. | See also: Recent months at McArthur River Mine
Date/Time
CST
Temp
°C
App
Temp
°C
Dew
Point
Rel
Hum
%
Delta-T
°C
Wind Press
QNH
hPa
Press
MSL
hPa
Rain
since 9 am
mm
Dir
 
Spd
km/h
Gust
km/h
Spd
kts
Gust
kts
02/01:00pm 35.1 36.8 21.0 43 9.6 NNE 13 20 7 11 1005.5 - 0.0
02/12:30pm 35.7 37.5 21.9 44 9.5 E 15 28 8 15 1006.0 - 0.0
02/12:00pm 34.9 37.1 22.6 49 8.5 N 15 28 8 15 1006.4 1006.1 0.0
02/11:30am 34.2 35.3 21.9 48 8.4 E 19 28 10 15 1006.7 - 0.0
02/11:00am 33.1 34.5 21.9 51 7.6 NE 17 26 9 14 1007.0 - 0.0
02/10:30am 33.7 35.8 23.1 54 7.3 NE 17 32 9 17 1007.1 - 0.0
02/10:00am 32.6 34.9 23.5 58 6.3 NNE 17 26 9 14 1007.3 - 0.0
02/09:30am 32.4 35.2 23.6 59 6.1 NE 15 24 8 13 1007.4 - 0.0
02/09:00am 30.9 34.2 23.8 66 4.9 NE 13 24 7 13 1007.3 1007.0 -
02/08:30am 30.3 34.5 24.7 72 3.9 ENE 11 17 6 9 1007.2 - -
02/08:00am 29.6 34.7 25.6 79 2.8 E 9 15 5 8 1006.8 - -
02/07:30am 28.3 34.8 27.1 93 0.9 ESE 7 9 4 5 1006.8 - -
02/07:00am 27.0 34.4 27.0 100 0.0 SSE 2 9 1 5 1006.5 - -
02/06:30am 26.8 33.7 26.8 100 0.0 SSE 4 7 2 4 1006.2 - -
02/06:00am 26.7 33.5 26.7 100 0.0 ESE 4 7 2 4 1006.1 1005.8 -
02/05:30am 26.9 33.8 26.9 100 0.0 ESE 4 7 2 4 1005.7 - -
02/05:00am 27.0 33.8 26.7 98 0.2 SE 4 7 2 4 1005.8 - -
02/04:30am 27.3 34.3 26.4 95 0.6 SSE 2 6 1 3 1005.7 - -
02/04:00am 27.5 33.9 26.1 92 1.0 ESE 4 7 2 4 1005.8 - -
02/03:30am 27.7 33.5 25.7 89 1.4 NE 6 9 3 5 1005.5 - -
02/03:00am 28.2 33.7 25.6 86 1.8 NE 7 11 4 6 1005.5 1005.2 -
02/02:30am 28.3 33.8 25.3 84 2.1 NE 6 9 3 5 1005.7 - -
02/02:00am 28.6 33.9 25.2 82 2.4 NNE 7 11 4 6 1005.9 - -
02/01:30am 28.9 33.6 24.9 79 2.8 NE 9 13 5 7 1006.1 - -
02/01:00am 29.2 32.9 24.5 76 3.3 ENE 13 17 7 9 1006.4 - -
02/12:30am 29.4 33.5 24.0 72 3.7 ENE 9 13 5 7 1006.7 - -
02/12:00am 29.6 32.9 23.8 71 4.0 NE 13 20 7 11 1006.9 1006.6 -
 
Date/Time
CST
Temp
°C
App
Temp
°C
Dew
Point
Rel
Hum
%
Delta-T
°C
Wind Press
QNH
hPa
Press
MSL
hPa
Rain
since 9 am
mm
Dir
 
Spd
km/h
Gust
km/h
Spd
kts
Gust
kts
01/11:30pm 29.7 33.5 23.4 69 4.3 NE 9 11 5 6 1007.2 - -
01/11:00pm 30.0 33.3 23.2 67 4.7 ENE 11 17 6 9 1007.3 - -
01/10:30pm 30.4 32.7 22.8 64 5.2 NE 15 20 8 11 1007.0 - -
01/10:00pm 30.8 33.4 22.7 62 5.5 NE 13 19 7 10 1007.1 - -
01/09:30pm 31.0 34.1 22.9 62 5.6 NNE 11 17 6 9 1006.8 - -
01/09:00pm 31.4 34.2 23.0 61 5.8 NNE 13 19 7 10 1006.2 1005.9 -
01/08:30pm 31.8 33.9 23.1 60 6.0 NE 17 26 9 14 1005.8 - -
01/08:00pm 32.4 34.5 23.1 58 6.4 NE 17 26 9 14 1005.1 - -
01/07:30pm 33.3 35.4 22.4 52 7.5 NNE 15 24 8 13 1004.4 - -
01/07:00pm 34.2 36.4 21.9 48 8.4 NE 13 20 7 11 1003.7 - -
01/06:30pm 34.8 36.4 21.5 46 9.0 NE 15 22 8 12 1003.1 - -
01/06:00pm 35.5 37.2 20.2 40 10.3 ENE 11 15 6 8 1002.8 1002.5 -
01/05:30pm 36.5 37.8 19.4 36 11.4 NE 11 15 6 8 1002.4 - -
01/05:00pm 36.9 37.8 18.4 33 12.2 ENE 11 19 6 10 1002.1 - -
01/04:30pm 37.1 38.7 19.1 35 11.9 E 9 15 5 8 1002.3 - -
01/04:00pm 36.4 38.1 19.4 37 11.3 ENE 9 13 5 7 1002.9 - -
01/03:30pm 36.9 38.6 18.4 33 12.2 WSW 7 13 4 7 1003.4 - -
01/03:00pm 36.7 38.1 17.8 32 12.4 N 7 15 4 8 1003.5 1003.2 0.0
01/02:30pm 37.2 38.8 19.2 35 12.0 NNE 9 17 5 9 1003.8 - -
01/02:00pm 36.8 38.3 18.8 34 11.9 ENE 9 15 5 8 1004.2 - -
01/01:30pm 36.3 38.0 18.4 35 11.7 E 7 15 4 8 1004.9 - -
01/01:00pm 36.2 36.5 16.9 32 12.4 ESE 11 17 6 9 1005.4 - -
01/12:30pm 36.5 36.6 16.6 30 12.7 NE 11 19 6 10 1006.1 - -
01/12:00pm 35.9 35.5 16.1 30 12.6 ENE 13 19 7 10 1006.7 1006.4 -
01/11:00am 35.0 37.3 19.8 41 10.1 NE 7 15 4 8 1007.1 - 0.0
01/10:30am 33.7 34.3 15.7 34 11.3 N 7 11 4 6 1007.5 - 0.0
01/10:00am 32.7 36.3 21.2 50 7.8 NW 4 7 2 4 1007.7 - 0.0
01/09:30am 31.1 35.1 22.7 61 5.8 N 6 11 3 6 1008.0 - 0.0
01/09:00am 30.6 35.0 24.5 70 4.3 NW 9 13 5 7 1007.7 1007.4 0.0
01/08:30am 30.0 36.5 25.7 78 3.1 NW 2 7 1 4 1007.3 - 0.0
01/08:00am 29.4 35.9 26.8 86 1.9 N 6 9 3 5 1007.0 - 0.0
01/07:30am 28.4 35.3 26.8 91 1.1 N 4 7 2 4 1006.7 - 0.0
01/07:00am 27.3 35.3 27.3 100 0.0 CALM 0 0 0 0 1006.2 - 0.0
01/06:30am 26.7 34.3 26.7 100 0.0 CALM 0 0 0 0 1005.6 - 0.0
01/06:00am 26.8 34.4 26.8 100 0.0 CALM 0 0 0 0 1005.2 1004.9 0.0
01/05:30am 26.8 34.4 26.8 100 0.0 CALM 0 0 0 0 1004.6 - 0.0
01/05:00am 26.9 34.6 26.9 100 0.0 CALM 0 0 0 0 1004.4 - 0.0
01/04:30am 27.1 34.8 26.9 99 0.1 CALM 0 0 0 0 1004.7 - 0.0
01/04:00am 27.5 34.9 26.4 94 0.8 CALM 0 0 0 0 1004.7 - 0.0
01/03:30am 27.4 34.4 25.8 91 1.1 CALM 0 4 0 2 1004.5 - 0.0
01/03:00am 27.5 33.3 25.7 90 1.3 N 6 7 3 4 1004.9 1004.6 0.0
01/02:30am 27.5 33.0 25.3 88 1.5 NW 6 7 3 4 1005.0 - 0.0
01/02:00am 27.7 32.7 24.5 83 2.2 WSW 6 9 3 5 1005.6 - 0.0
01/01:30am 27.8 31.1 23.2 76 3.1 WSW 11 17 6 9 1006.1 - 0.0
01/01:00am 29.1 33.7 23.8 73 3.7 N 6 11 3 6 1005.8 - 0.0
01/12:30am 29.1 32.7 23.1 70 4.1 N 9 13 5 7 1006.0 - 0.0
01/12:00am 29.6 33.1 22.1 64 5.1 NNE 7 11 4 6 1006.3 1006.0 0.0
 
Date/Time
CST
Temp
°C
App
Temp
°C
Dew
Point
Rel
Hum
%
Delta-T
°C
Wind Press
QNH
hPa
Press
MSL
hPa
Rain
since 9 am
mm
Dir
 
Spd
km/h
Gust
km/h
Spd
kts
Gust
kts
28/11:30pm 29.8 34.1 21.2 60 5.8 CALM 0 0 0 0 1006.4 - 0.0
28/11:00pm 30.3 32.9 20.5 55 6.5 N 7 11 4 6 1006.3 - 0.0
28/10:30pm 30.8 32.5 20.1 53 7.1 NE 11 17 6 9 1006.1 - 0.0
28/10:00pm 31.1 32.4 19.4 49 7.7 NNE 11 15 6 8 1005.7 - 0.0
28/09:30pm 31.7 32.7 18.7 46 8.4 NNE 11 19 6 10 1005.5 - 0.0
28/09:00pm 32.2 33.3 18.8 45 8.8 NNE 11 17 6 9 1005.2 1004.9 0.0
28/08:30pm 32.8 34.5 19.3 45 8.9 NNE 9 20 5 11 1005.1 - 0.0
28/08:00pm 33.2 34.4 20.0 45 8.8 NNE 13 19 7 10 1004.5 - 0.0
28/07:30pm 33.8 34.6 19.8 43 9.3 NE 15 26 8 14 1003.7 - 0.0
28/07:00pm 34.6 35.9 20.2 43 9.6 NE 13 20 7 11 1003.1 - 0.0
28/06:30pm 35.4 36.7 20.9 42 9.8 NNE 15 24 8 13 1002.9 - 0.0
28/06:00pm 37.5 39.9 18.0 31 12.8 SE 2 6 1 3 1002.5 1002.2 0.0
28/05:30pm 38.0 40.2 17.4 29 13.4 ENE 2 7 1 4 1002.4 - 0.0
28/05:00pm 38.1 39.2 18.0 30 13.2 NE 9 15 5 8 1002.4 - 0.0
28/04:30pm 38.4 39.6 18.3 31 13.2 S 9 11 5 6 1002.6 - 0.0
28/04:00pm 38.3 40.3 18.7 31 13.0 NNE 6 7 3 4 1002.8 - 0.0
28/03:30pm 38.3 40.1 18.7 31 13.0 SSW 7 13 4 7 1003.0 - 0.0
28/03:00pm 38.4 41.1 20.2 34 12.3 NW 6 11 3 6 1003.2 1002.9 0.0
28/02:30pm 37.7 39.7 19.1 33 12.4 NW 7 13 4 7 1003.6 - 0.0
28/02:00pm 36.7 38.1 19.6 36 11.4 N 11 17 6 9 1004.1 - 0.0
28/01:30pm 36.4 39.1 21.4 41 10.2 NW 9 17 5 9 1004.6 - 0.0
28/01:00pm 36.5 39.8 21.9 42 10.0 E 7 11 4 6 1005.3 - 0.0
28/12:30pm 35.5 38.6 21.4 44 9.6 SSW 7 13 4 7 1005.6 - 0.0
28/12:00pm 34.8 37.9 22.2 48 8.7 NW 9 13 5 7 1006.1 1005.8 0.0
28/11:30am 34.7 38.1 22.7 49 8.3 N 9 15 5 8 1006.4 - 0.0
28/11:00am 34.0 37.8 22.7 51 7.8 N 7 13 4 7 1006.6 - 0.0
28/10:30am 33.7 37.7 22.8 53 7.5 NE 6 9 3 5 1007.2 - 0.0
28/10:00am 32.6 36.4 23.5 58 6.3 WSW 9 13 5 7 1007.5 - 0.0
28/09:30am 31.9 36.7 24.5 65 5.2 SW 7 13 4 7 1007.4 - 0.0
28/09:00am 30.9 36.2 25.0 71 4.2 WSW 6 9 3 5 1007.1 1006.8 0.0
28/08:30am 30.6 36.2 25.7 75 3.5 S 7 15 4 8 1006.6 - 0.0
28/08:00am 29.6 36.6 26.4 83 2.3 S 2 7 1 4 1006.3 - 0.0
28/07:30am 28.8 36.5 28.5 98 0.2 SSE 6 7 3 4 1006.4 - 0.0
28/07:00am 27.9 35.9 27.9 100 0.0 NNE 2 7 1 4 1006.3 - 0.0
28/06:30am 27.5 35.2 27.5 100 0.0 N 2 6 1 3 1006.0 - 0.0
28/06:00am 27.6 35.8 27.6 100 0.0 CALM 0 0 0 0 1005.8 1005.5 0.0
28/05:30am 28.0 36.1 28.0 100 0.0 N 2 7 1 4 1005.7 - 0.0
28/05:00am 28.1 35.5 28.1 100 0.0 N 6 7 3 4 1005.7 - 0.0
28/04:30am 28.3 35.3 28.3 100 0.0 N 9 13 5 7 1005.4 - 0.0
28/04:00am 28.4 35.5 27.9 97 0.4 N 7 13 4 7 1005.4 - 0.0
28/03:30am 28.6 35.2 27.7 95 0.7 N 9 13 5 7 1005.2 - 0.0
28/03:00am 28.7 35.3 27.3 92 1.0 N 7 11 4 6 1005.2 1004.9 0.0
28/02:30am 28.9 35.1 26.7 88 1.6 N 7 13 4 7 1005.5 - 0.0
28/02:00am 29.2 35.3 27.0 88 1.6 N 9 15 5 8 1005.6 - 0.0
28/01:30am 29.2 35.3 27.0 88 1.6 N 9 11 5 6 1005.9 - 0.0
28/01:00am 29.6 35.3 26.4 83 2.3 NNE 9 13 5 7 1006.4 - 0.0
28/12:30am 29.8 35.2 26.0 80 2.7 NNE 9 15 5 8 1006.8 - 0.0
28/12:00am 29.9 35.0 26.1 80 2.7 NNE 11 17 6 9 1007.1 1006.8 0.0
 
Date/Time
CST
Temp
°C
App
Temp
°C
Dew
Point
Rel
Hum
%
Delta-T
°C
Wind Press
QNH
hPa
Press
MSL
hPa
Rain
since 9 am
mm
Dir
 
Spd
km/h
Gust
km/h
Spd
kts
Gust
kts
27/11:32pm 30.0 35.6 25.7 78 3.1 N 7 13 4 7 1007.5 - 0.0
27/11:30pm 30.1 35.4 25.8 78 3.1 NNE 9 13 5 7 1007.4 - 0.0
27/11:18pm 30.3 35.0 25.6 76 3.3 NNE 11 17 6 9 1007.4 - 0.0
27/11:00pm 30.3 35.2 25.8 77 3.2 N 11 15 6 8 1007.3 - 0.0
27/10:30pm 30.9 34.7 25.3 72 4.0 NNE 15 22 8 12 1007.1 - 0.0
27/10:00pm 31.3 34.5 24.4 66 4.8 NNE 15 26 8 14 1006.5 - 0.0
27/09:30pm 31.6 36.1 25.2 69 4.5 NNE 11 26 6 14 1005.8 - 0.0
27/09:00pm 30.6 36.6 24.3 69 4.4 CALM 0 4 0 2 1005.4 1005.1 0.0
27/08:30pm 31.3 37.0 23.7 64 5.3 CALM 0 0 0 0 1005.2 - 0.0
27/08:00pm 31.1 34.9 22.7 61 5.8 N 7 15 4 8 1004.5 - 0.0
27/07:30pm 32.2 35.2 22.0 55 6.9 S 9 11 5 6 1003.7 - 0.0
27/07:00pm 32.7 35.1 21.5 51 7.6 SSE 11 17 6 9 1003.2 - 0.0
27/06:30pm 35.9 38.4 19.8 39 10.7 S 6 11 3 6 1003.0 - 0.0
27/06:00pm 37.0 38.5 19.0 34 12.0 S 9 11 5 6 1002.7 1002.4 0.0
27/05:30pm 37.8 38.7 18.3 32 12.8 S 11 15 6 8 1002.6 - 0.0
27/05:00pm 38.2 39.9 18.6 31 13.0 SSE 7 13 4 7 1002.3 - 0.0
27/04:30pm 38.0 39.3 18.4 31 12.9 SSE 9 15 5 8 1002.4 - 0.0
27/04:00pm 38.3 40.1 18.2 31 13.2 SSW 6 11 3 6 1002.3 - 0.0
27/03:30pm 38.1 39.6 19.0 32 12.7 WSW 9 13 5 7 1002.7 - 0.0
27/03:00pm 37.9 38.4 18.3 31 12.9 SW 13 19 7 10 1003.0 1002.7 0.0
27/02:30pm 37.4 38.7 18.4 32 12.5 E 9 13 5 7 1003.5 - 0.0
27/02:00pm 37.0 39.1 19.4 35 11.7 ESE 7 11 4 6 1004.1 - 0.0
27/01:30pm 36.9 38.8 18.9 34 11.9 W 7 11 4 6 1004.4 - 0.0

Other Formats:

Comma delimited format used in spreadsheet applications
http://www.bom.gov.au/fwo/IDD60801/IDD60801.94239.axf

JavaScript Object Notation format (JSON) in row-major order
http://www.bom.gov.au/fwo/IDD60801/IDD60801.94239.json